Time,TemperatureF,DewpointF,PressureIn,WindDirection,WindDirectionDegrees,WindSpeedMPH,WindSpeedGustMPH,Humidity,HourlyPrecipIn,Conditions,Clouds,dailyrainin,SoftwareType,DateUTC
2013-03-02 00:00:00,27.3,22.8,29.87,NNE,22,0.0,1.0,83,0.00,CLR,,0.00,WeatherDisplay:10.37,2013-03-02 05:00:00,
2013-03-02 00:05:00,27.3,22.8,29.87,NNE,22,0.0,0.0,83,0.00,CLR,,0.00,WeatherDisplay:10.37,2013-03-02 05:05:00,
2013-03-02 00:10:00,27.3,22.8,29.87,NNE,22,0.0,0.0,83,0.00,CLR,,0.00,WeatherDisplay:10.37,2013-03-02 05:10:00,
2013-03-02 00:15:00,27.1,22.7,29.87,NNE,22,2.3,2.3,83,0.00,CLR,,0.00,WeatherDisplay:10.37,2013-03-02 05:15:00,
2013-03-02 00:20:00,27.1,22.7,29.87,NNE,22,0.0,0.0,83,0.00,CLR,,0.00,WeatherDisplay:10.37,2013-03-02 05:20:00,
2013-03-02 00:25:00,27.1,22.7,29.87,NNE,22,1.1,1.8,83,0.00,CLR,,0.00,WeatherDisplay:10.37,2013-03-02 05:25:00,
2013-03-02 00:30:00,27.0,22.5,29.87,NNE,22,0.0,0.0,83,0.00,CLR,,0.00,WeatherDisplay:10.37,2013-03-02 05:30:00,
2013-03-02 00:35:00,27.0,22.5,29.87,NNE,22,1.7,1.8,83,0.00,CLR,,0.00,WeatherDisplay:10.37,2013-03-02 05:35:00,
2013-03-02 00:40:00,27.0,22.5,29.87,NNE,22,0.0,0.0,83,0.00,CLR,,0.00,WeatherDisplay:10.37,2013-03-02 05:40:00,
2013-03-02 00:45:00,26.8,22.3,29.87,NNE,22,2.3,2.3,83,0.00,CLR,,0.00,WeatherDisplay:10.37,2013-03-02 05:45:00,
2013-03-02 00:50:00,26.8,22.3,29.87,NNE,22,0.0,0.0,83,0.00,CLR,,0.00,WeatherDisplay:10.37,2013-03-02 05:50:00,
2013-03-02 00:55:00,26.8,22.3,29.87,NNE,22,0.0,0.0,83,0.00,CLR,,0.00,WeatherDisplay:10.37,2013-03-02 05:55:00,
2013-03-02 01:00:00,26.8,22.3,29.87,NNE,22,0.0,0.0,83,0.00,CLR,,0.00,WeatherDisplay:10.37,2013-03-02 06:00:00,
2013-03-02 01:05:00,26.8,22.3,29.87,NNE,22,0.0,0.0,83,0.00,CLR,,0.00,WeatherDisplay:10.37,2013-03-02 06:05:00,
2013-03-02 01:10:00,26.8,22.3,29.87,NNE,22,0.0,0.0,83,0.00,CLR,,0.00,WeatherDisplay:10.37,2013-03-02 06:10:00,
2013-03-02 01:15:00,26.8,22.3,29.87,NNE,22,0.0,0.0,83,0.00,CLR,,0.00,WeatherDisplay:10.37,2013-03-02 06:15:00,
2013-03-02 01:20:00,26.8,22.3,29.87,NNE,22,0.0,0.0,83,0.00,CLR,,0.00,WeatherDisplay:10.37,2013-03-02 06:20:00,
2013-03-02 01:25:00,26.8,22.3,29.86,NNE,22,3.5,3.5,83,0.00,CLR,,0.00,WeatherDisplay:10.37,2013-03-02 06:25:00,
2013-03-02 01:30:00,26.8,22.3,29.87,NNE,22,0.0,0.0,83,0.00,CLR,,0.00,WeatherDisplay:10.37,2013-03-02 06:30:00,
2013-03-02 01:35:00,26.8,22.3,29.87,NNE,22,0.0,0.0,83,0.00,CLR,,0.00,WeatherDisplay:10.37,2013-03-02 06:35:00,
2013-03-02 01:40:00,26.6,22.1,29.87,NNE,22,0.0,0.0,83,0.00,CLR,,0.00,WeatherDisplay:10.37,2013-03-02 06:40:00,
2013-03-02 01:45:00,26.4,22.0,29.87,NNE,22,0.0,0.0,83,0.00,CLR,,0.00,WeatherDisplay:10.37,2013-03-02 06:45:00,
2013-03-02 01:50:00,26.4,22.0,29.87,NNE,22,2.9,2.9,83,0.00,CLR,,0.00,WeatherDisplay:10.37,2013-03-02 06:50:00,
2013-03-02 01:55:00,26.4,22.0,29.87,NNE,22,0.0,0.0,83,0.00,CLR,,0.00,WeatherDisplay:10.37,2013-03-02 06:55:00,
2013-03-02 02:00:00,26.4,22.0,29.87,NNE,22,2.3,2.3,83,0.00,CLR,,0.00,WeatherDisplay:10.37,2013-03-02 07:00:00,
2013-03-02 02:05:00,26.4,22.0,29.87,NNE,22,2.3,2.3,83,0.00,CLR,,0.00,WeatherDisplay:10.37,2013-03-02 07:05:00,
2013-03-02 02:10:00,26.2,21.8,29.87,NNE,22,2.3,2.3,83,0.00,CLR,,0.00,WeatherDisplay:10.37,2013-03-02 07:10:00,
2013-03-02 02:15:00,26.2,21.8,29.87,NNE,22,0.0,0.0,83,0.00,CLR,,0.00,WeatherDisplay:10.37,2013-03-02 07:15:00,
2013-03-02 02:20:00,26.2,21.8,29.87,NNE,22,0.0,0.0,83,0.00,CLR,,0.00,WeatherDisplay:10.37,2013-03-02 07:20:00,
2013-03-02 02:25:00,26.2,21.8,29.87,NNE,22,1.1,1.1,83,0.00,CLR,,0.00,WeatherDisplay:10.37,2013-03-02 07:25:00,
2013-03-02 02:30:00,26.2,21.8,29.87,NNE,22,0.0,0.0,83,0.00,CLR,,0.00,WeatherDisplay:10.37,2013-03-02 07:30:00,
2013-03-02 02:35:00,26.2,21.8,29.86,NNE,22,0.0,0.0,83,0.00,CLR,,0.00,WeatherDisplay:10.37,2013-03-02 07:35:00,
2013-03-02 02:40:00,26.1,21.6,29.86,NNE,22,0.0,0.0,83,0.00,CLR,,0.00,WeatherDisplay:10.37,2013-03-02 07:40:00,
2013-03-02 02:45:00,26.1,21.6,29.86,NNE,22,1.1,0.0,83,0.00,CLR,,0.00,WeatherDisplay:10.37,2013-03-02 07:45:00,
2013-03-02 02:50:00,26.1,21.6,29.85,NNE,22,0.0,0.0,83,0.00,CLR,,0.00,WeatherDisplay:10.37,2013-03-02 07:50:00,
2013-03-02 02:55:00,26.1,21.6,29.85,NNE,22,1.1,1.1,83,0.00,CLR,,0.00,WeatherDisplay:10.37,2013-03-02 07:55:00,
2013-03-02 03:00:00,25.9,21.4,29.86,NNE,22,1.1,1.1,83,0.00,CLR,,0.00,WeatherDisplay:10.37,2013-03-02 08:00:00,
2013-03-02 03:05:00,25.9,21.4,29.85,NNE,22,0.0,0.0,83,0.00,CLR,,0.00,WeatherDisplay:10.37,2013-03-02 08:05:00,
2013-03-02 03:10:00,25.9,21.4,29.86,NNE,22,0.0,0.0,83,0.00,CLR,,0.00,WeatherDisplay:10.37,2013-03-02 08:10:00,
2013-03-02 03:15:00,25.7,21.3,29.85,NNE,22,0.0,0.0,83,0.00,CLR,,0.00,WeatherDisplay:10.37,2013-03-02 08:15:00,
2013-03-02 03:20:00,25.7,21.3,29.85,NNE,22,2.3,2.3,83,0.00,CLR,,0.00,WeatherDisplay:10.37,2013-03-02 08:20:00,
2013-03-02 03:25:00,25.5,21.1,29.85,NNE,22,0.0,0.0,83,0.00,CLR,,0.00,WeatherDisplay:10.37,2013-03-02 08:25:00,
2013-03-02 03:30:00,25.5,21.1,29.85,NNE,22,0.0,0.0,83,0.00,CLR,,0.00,WeatherDisplay:10.37,2013-03-02 08:30:00,
2013-03-02 03:35:00,25.3,20.9,29.85,NNE,22,0.0,0.0,83,0.00,CLR,,0.00,WeatherDisplay:10.37,2013-03-02 08:35:00,
2013-03-02 03:40:00,25.3,20.9,29.85,NNE,22,0.0,0.0,83,0.00,CLR,,0.00,WeatherDisplay:10.37,2013-03-02 08:40:00,
2013-03-02 03:45:00,25.2,20.7,29.85,NNE,22,0.0,0.0,83,0.00,CLR,,0.00,WeatherDisplay:10.37,2013-03-02 08:45:00,
2013-03-02 03:50:00,25.2,20.7,29.85,NNE,22,0.0,0.0,83,0.00,CLR,,0.00,WeatherDisplay:10.37,2013-03-02 08:50:00,
2013-03-02 03:55:00,25.2,20.7,29.84,NNE,22,0.0,0.0,83,0.00,CLR,,0.00,WeatherDisplay:10.37,2013-03-02 08:55:00,
2013-03-02 04:00:00,25.2,20.7,29.84,NNE,22,2.3,0.0,83,0.00,CLR,,0.00,WeatherDisplay:10.37,2013-03-02 09:00:00,
2013-03-02 04:05:00,25.3,20.9,29.85,NNE,22,3.5,3.5,83,0.00,CLR,,0.00,WeatherDisplay:10.37,2013-03-02 09:05:00,
2013-03-02 04:10:00,25.3,20.9,29.85,NNE,22,0.0,0.0,83,0.00,CLR,,0.00,WeatherDisplay:10.37,2013-03-02 09:10:00,
2013-03-02 04:15:00,25.3,20.9,29.85,NNE,22,0.0,0.0,83,0.00,CLR,,0.00,WeatherDisplay:10.37,2013-03-02 09:15:00,
2013-03-02 04:20:00,25.3,20.9,29.84,NNE,22,0.0,0.0,83,0.00,CLR,,0.00,WeatherDisplay:10.37,2013-03-02 09:20:00,
2013-03-02 04:25:00,25.3,20.9,29.84,NNE,22,3.6,3.7,83,0.00,CLR,,0.00,WeatherDisplay:10.37,2013-03-02 09:25:00,
2013-03-02 04:30:00,25.3,20.9,29.85,NNE,22,2.3,2.3,83,0.00,CLR,,0.00,WeatherDisplay:10.37,2013-03-02 09:30:00,
2013-03-02 04:35:00,25.3,20.9,29.84,NNE,22,0.0,0.0,83,0.00,CLR,,0.00,WeatherDisplay:10.37,2013-03-02 09:35:00,
2013-03-02 04:40:00,25.3,20.9,29.84,NNE,22,0.0,0.0,83,0.00,CLR,,0.00,WeatherDisplay:10.37,2013-03-02 09:40:00,
2013-03-02 04:45:00,25.3,20.9,29.84,NNE,22,0.0,0.0,83,0.00,CLR,,0.00,WeatherDisplay:10.37,2013-03-02 09:45:00,
2013-03-02 04:51:00,25.2,20.7,29.84,NNE,22,4.6,4.6,83,0.00,CLR,,0.00,WeatherDisplay:10.37,2013-03-02 09:51:00,
2013-03-02 04:56:00,25.2,20.7,29.84,NNE,22,1.1,1.1,83,0.00,CLR,,0.00,WeatherDisplay:10.37,2013-03-02 09:56:00,
2013-03-02 05:01:00,25.2,20.7,29.85,NNE,22,3.5,3.5,83,0.00,CLR,,0.00,WeatherDisplay:10.37,2013-03-02 10:01:00,
2013-03-02 05:06:00,25.2,20.7,29.84,NNE,22,0.0,0.0,83,0.00,CLR,,0.00,WeatherDisplay:10.37,2013-03-02 10:06:00,
2013-03-02 05:11:00,25.2,20.7,29.84,NNE,22,0.0,0.0,83,0.00,CLR,,0.00,WeatherDisplay:10.37,2013-03-02 10:11:00,
2013-03-02 05:16:00,25.2,20.7,29.84,NNE,22,0.0,0.0,83,0.00,CLR,,0.00,WeatherDisplay:10.37,2013-03-02 10:16:00,
2013-03-02 05:21:00,25.2,20.7,29.84,NNE,22,0.0,0.0,83,0.00,CLR,,0.00,WeatherDisplay:10.37,2013-03-02 10:21:00,
2013-03-02 05:26:00,25.2,20.7,29.84,NNE,22,0.0,0.0,83,0.00,CLR,,0.00,WeatherDisplay:10.37,2013-03-02 10:26:00,
2013-03-02 05:31:00,25.0,20.5,29.84,NNE,22,0.0,0.0,83,0.00,CLR,,0.00,WeatherDisplay:10.37,2013-03-02 10:31:00,
2013-03-02 05:36:00,25.2,20.7,29.84,NNE,22,0.0,0.0,83,0.00,CLR,,0.00,WeatherDisplay:10.37,2013-03-02 10:36:00,
2013-03-02 05:41:00,25.0,20.5,29.84,NNE,22,0.0,0.0,83,0.00,CLR,,0.00,WeatherDisplay:10.37,2013-03-02 10:41:00,
2013-03-02 05:46:00,25.0,20.5,29.84,NNE,22,1.1,1.5,83,0.00,CLR,,0.00,WeatherDisplay:10.37,2013-03-02 10:46:00,
2013-03-02 05:51:00,25.0,20.5,29.84,NNE,22,0.0,0.0,83,0.00,CLR,,0.00,WeatherDisplay:10.37,2013-03-02 10:51:00,
2013-03-02 05:56:00,25.0,20.5,29.84,NNE,22,3.5,3.5,83,0.00,CLR,,0.00,WeatherDisplay:10.37,2013-03-02 10:56:00,
2013-03-02 06:01:00,25.0,20.5,29.84,NNE,22,0.0,0.0,83,0.00,CLR,,0.00,WeatherDisplay:10.37,2013-03-02 11:01:00,
2013-03-02 06:06:00,25.0,20.5,29.84,NNE,22,5.8,0.0,83,0.00,CLR,,0.00,WeatherDisplay:10.37,2013-03-02 11:06:00,
2013-03-02 06:11:00,25.0,20.5,29.84,NNE,22,0.0,0.0,83,0.00,CLR,,0.00,WeatherDisplay:10.37,2013-03-02 11:11:00,
2013-03-02 06:17:00,25.0,20.8,29.84,NNE,22,1.1,1.9,84,0.00,CLR,,0.00,WeatherDisplay:10.37,2013-03-02 11:17:00,
2013-03-02 06:22:00,24.8,20.7,29.84,NNE,22,3.5,0.0,84,0.00,CLR,,0.00,WeatherDisplay:10.37,2013-03-02 11:22:00,
2013-03-02 06:27:00,24.8,20.7,29.84,NNE,22,2.3,2.3,84,0.00,CLR,,0.00,WeatherDisplay:10.37,2013-03-02 11:27:00,
2013-03-02 06:32:00,24.6,20.5,29.84,NNE,22,3.5,3.5,84,0.00,CLR,,0.00,WeatherDisplay:10.37,2013-03-02 11:32:00,
2013-03-02 06:37:00,24.6,20.5,29.84,NNE,22,3.5,3.5,84,0.00,CLR,,0.00,WeatherDisplay:10.37,2013-03-02 11:37:00,
2013-03-02 06:42:00,24.6,20.5,29.84,NNE,22,0.0,0.0,84,0.00,CLR,,0.00,WeatherDisplay:10.37,2013-03-02 11:42:00,
2013-03-02 06:47:00,24.6,20.5,29.84,NNE,22,4.6,4.6,84,0.00,CLR,,0.00,WeatherDisplay:10.37,2013-03-02 11:47:00,
2013-03-02 06:52:00,24.6,20.5,29.84,NNE,22,1.1,1.1,84,0.00,CLR,,0.00,WeatherDisplay:10.37,2013-03-02 11:52:00,
2013-03-02 06:57:00,24.4,20.0,29.84,NNE,22,0.0,0.0,83,0.00,CLR,,0.00,WeatherDisplay:10.37,2013-03-02 11:57:00,
2013-03-02 07:02:00,24.4,20.0,29.85,NNE,22,1.1,1.1,83,0.00,CLR,,0.00,WeatherDisplay:10.37,2013-03-02 12:02:00,
2013-03-02 07:07:00,24.4,20.0,29.85,NNE,22,0.0,0.0,83,0.00,CLR,,0.00,WeatherDisplay:10.37,2013-03-02 12:07:00,
2013-03-02 07:12:00,24.4,20.0,29.84,NNE,22,1.1,1.1,83,0.00,CLR,,0.00,WeatherDisplay:10.37,2013-03-02 12:12:00,
2013-03-02 07:17:00,24.4,20.0,29.85,NNE,22,5.6,5.6,83,0.00,CLR,,0.00,WeatherDisplay:10.37,2013-03-02 12:17:00,
2013-03-02 07:22:00,24.4,20.0,29.85,NNE,22,1.1,1.1,83,0.00,CLR,,0.00,WeatherDisplay:10.37,2013-03-02 12:22:00,
2013-03-02 07:27:00,24.4,20.0,29.85,NNE,22,0.0,0.0,83,0.00,CLR,,0.00,WeatherDisplay:10.37,2013-03-02 12:27:00,
2013-03-02 07:32:00,24.4,20.0,29.85,NNE,22,2.7,2.8,83,0.00,CLR,,0.00,WeatherDisplay:10.37,2013-03-02 12:32:00,
2013-03-02 07:37:00,24.4,20.0,29.85,NNE,22,6.9,6.9,83,0.00,CLR,,0.00,WeatherDisplay:10.37,2013-03-02 12:37:00,
2013-03-02 07:42:00,24.4,20.0,29.85,NNE,22,4.6,4.6,83,0.00,CLR,,0.00,WeatherDisplay:10.37,2013-03-02 12:42:00,
2013-03-02 07:47:00,24.4,20.0,29.86,NNE,22,1.1,1.1,83,0.00,CLR,,0.00,WeatherDisplay:10.37,2013-03-02 12:47:00,
2013-03-02 07:52:00,24.4,20.0,29.86,NNE,22,1.1,1.1,83,0.00,CLR,,0.00,WeatherDisplay:10.37,2013-03-02 12:52:00,
2013-03-02 07:57:00,24.4,20.0,29.86,NNE,22,2.3,2.3,83,0.00,CLR,,0.00,WeatherDisplay:10.37,2013-03-02 12:57:00,
2013-03-02 08:02:00,24.4,20.0,29.86,NNE,22,0.0,1.6,83,0.00,CLR,,0.00,WeatherDisplay:10.37,2013-03-02 13:02:00,
2013-03-02 08:07:00,24.4,20.0,29.86,NNE,22,0.0,0.0,83,0.00,CLR,,0.00,WeatherDisplay:10.37,2013-03-02 13:07:00,
2013-03-02 08:12:00,24.6,20.2,29.86,NNE,22,0.0,0.0,83,0.00,CLR,,0.00,WeatherDisplay:10.37,2013-03-02 13:12:00,
2013-03-02 08:17:00,24.6,20.2,29.86,NNE,22,0.0,0.0,83,0.00,CLR,,0.00,WeatherDisplay:10.37,2013-03-02 13:17:00,
2013-03-02 08:22:00,24.6,20.2,29.87,NNE,22,0.0,0.0,83,0.00,CLR,,0.00,WeatherDisplay:10.37,2013-03-02 13:22:00,
2013-03-02 08:27:00,24.8,20.4,29.87,NNE,22,0.0,0.0,83,0.00,CLR,,0.00,WeatherDisplay:10.37,2013-03-02 13:27:00,
2013-03-02 08:32:00,25.0,20.3,29.88,NNE,22,0.0,0.4,82,0.00,CLR,,0.00,WeatherDisplay:10.37,2013-03-02 13:32:00,
2013-03-02 08:37:00,25.2,20.4,29.88,NNE,22,0.0,0.0,82,0.00,CLR,,0.00,WeatherDisplay:10.37,2013-03-02 13:37:00,
2013-03-02 08:42:00,25.3,20.6,29.88,NNE,22,2.3,2.3,82,0.00,CLR,,0.00,WeatherDisplay:10.37,2013-03-02 13:42:00,
2013-03-02 08:47:00,25.2,20.4,29.88,NNE,22,0.0,0.0,82,0.00,CLR,,0.00,WeatherDisplay:10.37,2013-03-02 13:47:00,
2013-03-02 08:52:00,25.3,20.3,29.88,NNE,22,0.0,0.0,81,0.00,CLR,,0.00,WeatherDisplay:10.37,2013-03-02 13:52:00,
2013-03-02 08:57:00,25.5,20.5,29.87,NNE,22,0.0,0.0,81,0.00,CLR,,0.00,WeatherDisplay:10.37,2013-03-02 13:57:00,
2013-03-02 09:02:00,25.5,20.5,29.87,NNE,22,0.0,0.0,81,0.00,CLR,,0.00,WeatherDisplay:10.37,2013-03-02 14:02:00,
2013-03-02 09:07:00,25.3,20.3,29.87,NNE,22,4.6,4.6,81,0.00,CLR,,0.00,WeatherDisplay:10.37,2013-03-02 14:07:00,
2013-03-02 09:12:00,25.2,20.1,29.87,NNE,22,0.0,0.0,81,0.00,CLR,,0.00,WeatherDisplay:10.37,2013-03-02 14:12:00,
2013-03-02 09:17:00,25.2,20.1,29.87,NNE,22,2.3,2.3,81,0.00,CLR,,0.00,WeatherDisplay:10.37,2013-03-02 14:17:00,
2013-03-02 09:22:00,25.5,20.5,29.87,NNE,22,0.0,0.0,81,0.00,CLR,,0.00,WeatherDisplay:10.37,2013-03-02 14:22:00,
2013-03-02 09:27:00,25.9,20.6,29.86,NNE,22,0.0,0.0,80,0.00,CLR,,0.00,WeatherDisplay:10.37,2013-03-02 14:27:00,
2013-03-02 09:32:00,26.2,20.9,29.87,NNE,22,3.5,3.5,80,0.00,CLR,,0.00,WeatherDisplay:10.37,2013-03-02 14:32:00,
2013-03-02 09:37:00,26.1,20.4,29.87,NNE,22,2.7,2.8,79,0.00,CLR,,0.00,WeatherDisplay:10.37,2013-03-02 14:37:00,
2013-03-02 09:42:00,25.9,20.3,29.86,NNE,22,5.6,5.6,79,0.00,CLR,,0.00,WeatherDisplay:10.37,2013-03-02 14:42:00,
2013-03-02 09:47:00,25.5,19.9,29.86,NNE,22,8.4,8.4,79,0.00,CLR,,0.00,WeatherDisplay:10.37,2013-03-02 14:47:00,
2013-03-02 09:52:00,25.5,19.6,29.86,NNE,22,3.5,3.5,78,0.00,CLR,,0.00,WeatherDisplay:10.37,2013-03-02 14:52:00,
2013-03-02 09:57:00,25.3,19.4,29.86,NNE,22,1.1,1.8,78,0.00,CLR,,0.00,WeatherDisplay:10.37,2013-03-02 14:57:00,
2013-03-02 10:02:00,25.3,19.4,29.86,NNE,22,1.1,1.1,78,0.00,CLR,,0.00,WeatherDisplay:10.37,2013-03-02 15:02:00,
2013-03-02 10:07:00,25.3,19.4,29.86,NNE,22,0.0,0.0,78,0.00,CLR,,0.00,WeatherDisplay:10.37,2013-03-02 15:07:00,
2013-03-02 10:12:00,25.5,19.6,29.86,NNE,22,3.5,3.5,78,0.00,CLR,,0.00,WeatherDisplay:10.37,2013-03-02 15:12:00,
2013-03-02 10:17:00,25.7,19.8,29.86,NNE,22,1.1,1.1,78,0.00,CLR,,0.00,WeatherDisplay:10.37,2013-03-02 15:17:00,
2013-03-02 10:22:00,25.9,20.0,29.87,NNE,22,1.1,0.0,78,0.00,CLR,,0.00,WeatherDisplay:10.37,2013-03-02 15:22:00,
2013-03-02 10:27:00,26.4,20.5,29.87,NNE,22,2.3,2.3,78,0.00,CLR,,0.00,WeatherDisplay:10.37,2013-03-02 15:27:00,
2013-03-02 10:32:00,26.6,20.4,29.87,NNE,22,2.3,2.3,77,0.00,CLR,,0.00,WeatherDisplay:10.37,2013-03-02 15:32:00,
2013-03-02 10:37:00,26.4,20.2,29.87,NNE,22,3.5,3.5,77,0.00,CLR,,0.00,WeatherDisplay:10.37,2013-03-02 15:37:00,
2013-03-02 10:42:00,26.8,20.5,29.87,NNE,22,0.0,0.0,77,0.00,CLR,,0.00,WeatherDisplay:10.37,2013-03-02 15:42:00,
2013-03-02 10:47:00,27.0,20.4,29.87,NNE,22,4.6,4.6,76,0.00,CLR,,0.00,WeatherDisplay:10.37,2013-03-02 15:47:00,
2013-03-02 10:52:00,27.3,20.8,29.87,NNE,22,2.3,2.5,76,0.00,CLR,,0.00,WeatherDisplay:10.37,2013-03-02 15:52:00,
2013-03-02 10:57:00,27.5,20.6,29.87,NNE,22,1.2,1.3,75,0.00,CLR,,0.00,WeatherDisplay:10.37,2013-03-02 15:57:00,
2013-03-02 11:02:00,27.5,20.6,29.87,NNE,22,1.4,1.5,75,0.00,CLR,,0.00,WeatherDisplay:10.37,2013-03-02 16:02:00,
2013-03-02 11:07:00,27.3,20.4,29.87,NNE,22,3.5,3.5,75,0.00,CLR,,0.00,WeatherDisplay:10.37,2013-03-02 16:07:00,
2013-03-02 11:12:00,27.1,20.3,29.87,NNE,22,4.6,4.6,75,0.00,CLR,,0.00,WeatherDisplay:10.37,2013-03-02 16:12:00,
2013-03-02 11:17:00,27.1,20.3,29.87,NNE,22,0.0,0.0,75,0.00,CLR,,0.00,WeatherDisplay:10.37,2013-03-02 16:17:00,
2013-03-02 11:22:00,27.1,20.3,29.87,NNE,22,3.5,3.5,75,0.00,CLR,,0.00,WeatherDisplay:10.37,2013-03-02 16:22:00,
2013-03-02 11:27:00,27.5,20.3,29.87,NNE,22,2.3,2.3,74,0.00,CLR,,0.00,WeatherDisplay:10.37,2013-03-02 16:27:00,
2013-03-02 11:32:00,27.7,20.5,29.87,NNE,22,3.5,0.0,74,0.00,CLR,,0.00,WeatherDisplay:10.37,2013-03-02 16:32:00,
2013-03-02 11:37:00,27.9,20.6,29.86,NNE,22,2.3,2.5,74,0.00,CLR,,0.00,WeatherDisplay:10.37,2013-03-02 16:37:00,
2013-03-02 11:42:00,28.6,20.7,29.86,NNE,22,2.3,2.3,72,0.00,CLR,,0.00,WeatherDisplay:10.37,2013-03-02 16:42:00,
2013-03-02 11:47:00,28.8,20.9,29.87,NNE,22,0.0,0.0,72,0.00,CLR,,0.00,WeatherDisplay:10.37,2013-03-02 16:47:00,
2013-03-02 11:52:00,28.2,20.0,29.86,NNE,22,4.6,4.6,71,0.00,CLR,,0.00,WeatherDisplay:10.37,2013-03-02 16:52:00,
2013-03-02 11:57:00,27.7,19.5,29.86,NNE,22,8.1,8.1,71,0.00,CLR,,0.00,WeatherDisplay:10.37,2013-03-02 16:57:00,
2013-03-02 12:02:00,26.8,18.6,29.86,NNE,22,2.4,2.6,71,0.00,CLR,,0.00,WeatherDisplay:10.37,2013-03-02 17:02:00,
2013-03-02 12:07:00,26.4,18.9,29.87,NNE,22,0.0,0.0,73,0.00,CLR,,0.00,WeatherDisplay:10.37,2013-03-02 17:07:00,
2013-03-02 12:12:00,26.4,18.9,29.86,NNE,22,0.0,0.0,73,0.00,CLR,,0.00,WeatherDisplay:10.37,2013-03-02 17:12:00,
2013-03-02 12:17:00,26.8,19.3,29.87,NNE,22,3.5,3.5,73,0.00,CLR,,0.00,WeatherDisplay:10.37,2013-03-02 17:17:00,
2013-03-02 12:22:00,27.1,19.6,29.87,NNE,22,2.4,2.5,73,0.00,CLR,,0.00,WeatherDisplay:10.37,2013-03-02 17:22:00,
2013-03-02 12:27:00,27.1,19.3,29.87,NNE,22,4.6,4.6,72,0.00,CLR,,0.00,WeatherDisplay:10.37,2013-03-02 17:27:00,
2013-03-02 12:32:00,27.1,19.0,29.86,NNE,22,1.1,1.7,71,0.00,CLR,,0.00,WeatherDisplay:10.37,2013-03-02 17:32:00,
2013-03-02 12:37:00,27.1,19.0,29.87,NNE,22,3.9,0.0,71,0.00,CLR,,0.00,WeatherDisplay:10.37,2013-03-02 17:37:00,
2013-03-02 12:42:00,27.3,18.8,29.87,NNE,22,1.1,1.1,70,0.00,CLR,,0.00,WeatherDisplay:10.37,2013-03-02 17:42:00,
2013-03-02 12:47:00,27.7,19.2,29.86,NNE,22,4.6,4.6,70,0.00,CLR,,0.00,WeatherDisplay:10.37,2013-03-02 17:47:00,
2013-03-02 12:52:00,28.0,19.5,29.86,NNE,22,0.0,0.0,70,0.00,CLR,,0.00,WeatherDisplay:10.37,2013-03-02 17:52:00,
2013-03-02 12:57:00,28.9,20.4,29.86,NNE,22,4.6,4.6,70,0.00,CLR,,0.00,WeatherDisplay:10.37,2013-03-02 17:57:00,
2013-03-02 13:02:00,29.8,21.2,29.86,NNE,22,4.6,4.8,70,0.00,CLR,,0.00,WeatherDisplay:10.37,2013-03-02 18:02:00,
2013-03-02 13:07:00,29.5,20.6,29.86,NNE,22,4.6,4.6,69,0.00,CLR,,0.00,WeatherDisplay:10.37,2013-03-02 18:07:00,
2013-03-02 13:12:00,29.5,20.6,29.86,NNE,22,4.6,0.0,69,0.00,CLR,,0.00,WeatherDisplay:10.37,2013-03-02 18:12:00,
2013-03-02 13:17:00,28.9,20.4,29.86,NNE,22,0.0,0.0,70,0.00,CLR,,0.00,WeatherDisplay:10.37,2013-03-02 18:17:00,
2013-03-02 13:22:00,30.4,22.1,29.85,NNE,22,1.7,1.7,71,0.00,CLR,,0.00,WeatherDisplay:10.37,2013-03-02 18:22:00,
2013-03-02 13:27:00,31.1,22.8,29.85,NNE,22,2.3,2.3,71,0.00,CLR,,0.00,WeatherDisplay:10.37,2013-03-02 18:27:00,
2013-03-02 13:32:00,32.5,23.5,29.85,NNE,22,5.8,5.8,69,0.00,CLR,,0.00,WeatherDisplay:10.37,2013-03-02 18:32:00,
2013-03-02 13:37:00,32.2,22.4,29.85,NNE,22,4.6,4.6,67,0.00,CLR,,0.00,WeatherDisplay:10.37,2013-03-02 18:37:00,
2013-03-02 13:42:00,31.6,21.6,29.85,NNE,22,3.5,3.6,66,0.00,CLR,,0.00,WeatherDisplay:10.37,2013-03-02 18:42:00,
2013-03-02 13:47:00,31.1,21.4,29.85,NNE,22,1.1,1.8,67,0.00,CLR,,0.00,WeatherDisplay:10.37,2013-03-02 18:47:00,
2013-03-02 13:52:00,30.6,20.9,29.85,NNE,22,1.1,1.1,67,0.00,CLR,,0.00,WeatherDisplay:10.37,2013-03-02 18:52:00,
2013-03-02 13:57:00,30.2,20.6,29.85,NNE,22,5.8,5.8,67,0.00,CLR,,0.00,WeatherDisplay:10.37,2013-03-02 18:57:00,
2013-03-02 14:02:00,29.7,20.0,29.85,NNE,22,3.5,3.5,67,0.00,CLR,,0.00,WeatherDisplay:10.37,2013-03-02 19:02:00,
2013-03-02 14:07:00,29.1,19.5,29.85,NNE,22,2.3,2.3,67,0.00,CLR,,0.00,WeatherDisplay:10.37,2013-03-02 19:07:00,
2013-03-02 14:12:00,29.1,19.5,29.85,NNE,22,4.6,4.6,67,0.00,CLR,,0.00,WeatherDisplay:10.37,2013-03-02 19:12:00,
2013-03-02 14:17:00,29.1,19.5,29.85,NNE,22,1.1,0.0,67,0.00,CLR,,0.00,WeatherDisplay:10.37,2013-03-02 19:17:00,
2013-03-02 14:22:00,29.3,19.7,29.85,NNE,22,0.0,0.8,67,0.00,CLR,,0.00,WeatherDisplay:10.37,2013-03-02 19:22:00,
2013-03-02 14:27:00,29.3,19.3,29.85,NNE,22,5.8,6.0,66,0.00,CLR,,0.00,WeatherDisplay:10.37,2013-03-02 19:27:00,
2013-03-02 14:32:00,28.8,19.2,29.85,NNE,22,0.0,0.0,67,0.00,CLR,,0.00,WeatherDisplay:10.37,2013-03-02 19:32:00,
2013-03-02 14:37:00,28.0,18.8,29.85,NNE,22,3.5,3.8,68,0.00,CLR,,0.00,WeatherDisplay:10.37,2013-03-02 19:37:00,
2013-03-02 14:42:00,27.1,18.3,29.85,NNE,22,2.3,0.0,69,0.00,CLR,,0.00,WeatherDisplay:10.37,2013-03-02 19:42:00,
2013-03-02 14:47:00,27.0,18.1,29.85,NNE,22,0.0,0.0,69,0.00,CLR,,0.00,WeatherDisplay:10.37,2013-03-02 19:47:00,
2013-03-02 14:52:00,26.8,18.3,29.85,NNE,22,3.5,3.5,70,0.00,CLR,,0.00,WeatherDisplay:10.37,2013-03-02 19:52:00,
2013-03-02 14:57:00,26.8,18.3,29.85,NNE,22,3.5,3.5,70,0.00,CLR,,0.00,WeatherDisplay:10.37,2013-03-02 19:57:00,
2013-03-02 15:02:00,26.8,18.3,29.85,NNE,22,3.5,3.5,70,0.00,CLR,,0.00,WeatherDisplay:10.37,2013-03-02 20:02:00,
2013-03-02 15:07:00,26.8,18.6,29.85,NNE,22,2.4,0.0,71,0.00,CLR,,0.00,WeatherDisplay:10.37,2013-03-02 20:07:00,
2013-03-02 15:12:00,27.1,19.0,29.85,NNE,22,9.2,9.2,71,0.00,CLR,,0.00,WeatherDisplay:10.37,2013-03-02 20:12:00,
2013-03-02 15:17:00,27.1,19.0,29.85,NNE,22,4.6,4.6,71,0.00,CLR,,0.00,WeatherDisplay:10.37,2013-03-02 20:17:00,
2013-03-02 15:22:00,27.1,19.3,29.85,NNE,22,8.1,8.1,72,0.00,CLR,,0.00,WeatherDisplay:10.37,2013-03-02 20:22:00,
2013-03-02 15:28:00,27.7,19.8,29.85,NNE,22,1.1,0.0,72,0.00,CLR,,0.00,WeatherDisplay:10.37,2013-03-02 20:28:00,
2013-03-02 15:33:00,28.2,20.3,29.85,NNE,22,1.1,1.8,72,0.00,CLR,,0.00,WeatherDisplay:10.37,2013-03-02 20:33:00,
2013-03-02 15:38:00,28.9,21.0,29.85,NNE,22,3.9,3.9,72,0.00,CLR,,0.00,WeatherDisplay:10.37,2013-03-02 20:38:00,
2013-03-02 15:43:00,29.1,20.9,29.85,NNE,22,0.0,0.0,71,0.00,CLR,,0.00,WeatherDisplay:10.37,2013-03-02 20:43:00,
2013-03-02 15:48:00,28.9,20.7,29.85,NNE,22,3.5,3.5,71,0.00,CLR,,0.00,WeatherDisplay:10.37,2013-03-02 20:48:00,
2013-03-02 15:53:00,28.8,20.5,29.85,NNE,22,0.0,0.0,71,0.00,CLR,,0.00,WeatherDisplay:10.37,2013-03-02 20:53:00,
2013-03-02 15:58:00,28.2,20.0,29.85,NNE,22,3.5,3.5,71,0.00,CLR,,0.00,WeatherDisplay:10.37,2013-03-02 20:58:00,
2013-03-02 16:03:00,27.7,19.5,29.85,NNE,22,2.7,2.8,71,0.00,CLR,,0.00,WeatherDisplay:10.37,2013-03-02 21:03:00,
2013-03-02 16:08:00,27.0,19.5,29.85,NNE,22,4.6,4.6,73,0.00,CLR,,0.00,WeatherDisplay:10.37,2013-03-02 21:08:00,
2013-03-02 16:13:00,26.4,18.9,29.85,NNE,22,0.0,0.0,73,0.00,CLR,,0.00,WeatherDisplay:10.37,2013-03-02 21:13:00,
2013-03-02 16:18:00,26.1,18.9,29.85,NNE,22,3.5,0.0,74,0.00,CLR,,0.00,WeatherDisplay:10.37,2013-03-02 21:18:00,
2013-03-02 16:23:00,25.9,18.7,29.85,NNE,22,1.1,1.3,74,0.00,CLR,,0.00,WeatherDisplay:10.37,2013-03-02 21:23:00,
2013-03-02 16:28:00,25.9,18.7,29.85,NNE,22,0.0,0.5,74,0.00,CLR,,0.00,WeatherDisplay:10.37,2013-03-02 21:28:00,
2013-03-02 16:33:00,26.2,19.1,29.85,NNE,22,0.0,0.0,74,0.00,CLR,,0.00,WeatherDisplay:10.37,2013-03-02 21:33:00,
2013-03-02 16:38:00,26.6,19.4,29.85,NNE,22,3.5,3.5,74,0.00,CLR,,0.00,WeatherDisplay:10.37,2013-03-02 21:38:00,
2013-03-02 16:43:00,26.4,19.3,29.85,NNE,22,0.0,0.3,74,0.00,CLR,,0.00,WeatherDisplay:10.37,2013-03-02 21:43:00,
2013-03-02 16:48:00,26.2,19.1,29.85,NNE,22,3.5,3.5,74,0.00,CLR,,0.00,WeatherDisplay:10.37,2013-03-02 21:48:00,
2013-03-02 16:53:00,26.2,19.1,29.85,NNE,22,0.0,0.0,74,0.00,CLR,,0.00,WeatherDisplay:10.37,2013-03-02 21:53:00,
2013-03-02 16:58:00,25.9,18.7,29.86,NNE,22,0.0,0.0,74,0.00,CLR,,0.00,WeatherDisplay:10.37,2013-03-02 21:58:00,
2013-03-02 17:03:00,25.5,18.7,29.86,NNE,22,0.0,0.0,75,0.00,CLR,,0.00,WeatherDisplay:10.37,2013-03-02 22:03:00,
2013-03-02 17:08:00,25.3,18.5,29.86,NNE,22,1.1,1.1,75,0.00,CLR,,0.00,WeatherDisplay:10.37,2013-03-02 22:08:00,
2013-03-02 17:13:00,25.3,18.8,29.87,NNE,22,4.6,4.6,76,0.00,CLR,,0.00,WeatherDisplay:10.37,2013-03-02 22:13:00,
2013-03-02 17:18:00,25.2,19.0,29.87,NNE,22,4.6,0.0,77,0.00,CLR,,0.00,WeatherDisplay:10.37,2013-03-02 22:18:00,
2013-03-02 17:23:00,25.3,19.1,29.87,NNE,22,3.5,3.5,77,0.00,CLR,,0.00,WeatherDisplay:10.37,2013-03-02 22:23:00,
2013-03-02 17:28:00,25.2,19.0,29.87,NNE,22,0.0,0.0,77,0.00,CLR,,0.00,WeatherDisplay:10.37,2013-03-02 22:28:00,
2013-03-02 17:33:00,25.0,18.8,29.87,NNE,22,0.0,0.0,77,0.00,CLR,,0.00,WeatherDisplay:10.37,2013-03-02 22:33:00,
2013-03-02 17:38:00,25.0,18.8,29.87,NNE,22,1.1,1.1,77,0.00,CLR,,0.00,WeatherDisplay:10.37,2013-03-02 22:38:00,
2013-03-02 17:43:00,25.0,19.1,29.87,NNE,22,2.3,2.8,78,0.00,CLR,,0.00,WeatherDisplay:10.37,2013-03-02 22:43:00,
2013-03-02 17:48:00,24.6,18.7,29.87,NNE,22,1.1,1.1,78,0.00,CLR,,0.00,WeatherDisplay:10.37,2013-03-02 22:48:00,
2013-03-02 17:53:00,24.6,18.7,29.87,NNE,22,3.5,3.5,78,0.00,CLR,,0.00,WeatherDisplay:10.37,2013-03-02 22:53:00,
2013-03-02 17:58:00,24.4,18.6,29.88,NNE,22,0.0,0.0,78,0.00,CLR,,0.00,WeatherDisplay:10.37,2013-03-02 22:58:00,
2013-03-02 18:03:00,24.4,18.6,29.88,NNE,22,0.0,0.0,78,0.00,CLR,,0.00,WeatherDisplay:10.37,2013-03-02 23:03:00,
2013-03-02 18:08:00,24.1,18.5,29.88,NNE,22,0.0,0.0,79,0.00,CLR,,0.00,WeatherDisplay:10.37,2013-03-02 23:08:00,
2013-03-02 18:13:00,24.1,18.5,29.88,NNE,22,0.0,0.0,79,0.00,CLR,,0.00,WeatherDisplay:10.37,2013-03-02 23:13:00,
2013-03-02 18:18:00,23.9,18.3,29.88,NNE,22,3.5,3.5,79,0.00,CLR,,0.00,WeatherDisplay:10.37,2013-03-02 23:18:00,
2013-03-02 18:23:00,23.7,18.5,29.88,NNE,22,2.3,2.3,80,0.00,CLR,,0.00,WeatherDisplay:10.37,2013-03-02 23:23:00,
2013-03-02 18:28:00,23.7,18.5,29.88,NNE,22,2.3,2.5,80,0.00,CLR,,0.00,WeatherDisplay:10.37,2013-03-02 23:28:00,
2013-03-02 18:33:00,23.5,18.3,29.88,NNE,22,3.5,3.8,80,0.00,CLR,,0.00,WeatherDisplay:10.37,2013-03-02 23:33:00,
2013-03-02 18:38:00,23.5,18.3,29.88,NNE,22,0.0,0.0,80,0.00,CLR,,0.00,WeatherDisplay:10.37,2013-03-02 23:38:00,
2013-03-02 18:43:00,23.5,18.3,29.88,NNE,22,1.1,1.5,80,0.00,CLR,,0.00,WeatherDisplay:10.37,2013-03-02 23:43:00,
2013-03-02 18:48:00,23.4,18.1,29.88,NNE,22,2.3,2.5,80,0.00,CLR,,0.00,WeatherDisplay:10.37,2013-03-02 23:48:00,
2013-03-02 18:53:00,23.4,18.1,29.88,NNE,22,1.1,1.1,80,0.00,CLR,,0.00,WeatherDisplay:10.37,2013-03-02 23:53:00,
2013-03-02 18:58:00,23.4,18.1,29.89,NNE,22,8.1,8.1,80,0.00,CLR,,0.00,WeatherDisplay:10.37,2013-03-02 23:58:00,
2013-03-02 19:04:00,23.4,18.1,29.89,NNE,22,8.1,8.1,80,0.00,CLR,,0.00,WeatherDisplay:10.37,2013-03-03 00:04:00,
2013-03-02 19:09:00,23.4,18.1,29.89,NNE,22,0.0,0.0,80,0.00,CLR,,0.00,WeatherDisplay:10.37,2013-03-03 00:09:00,
2013-03-02 19:14:00,23.4,18.1,29.89,NNE,22,1.9,0.0,80,0.00,CLR,,0.00,WeatherDisplay:10.37,2013-03-03 00:14:00,
2013-03-02 19:19:00,23.4,18.1,29.89,NNE,22,1.1,1.1,80,0.00,CLR,,0.00,WeatherDisplay:10.37,2013-03-03 00:19:00,
2013-03-02 19:24:00,23.4,18.1,29.89,NNE,22,4.6,4.6,80,0.00,CLR,,0.00,WeatherDisplay:10.37,2013-03-03 00:24:00,
2013-03-02 19:29:00,23.4,17.8,29.89,NNE,22,4.6,4.8,79,0.00,CLR,,0.00,WeatherDisplay:10.37,2013-03-03 00:29:00,
2013-03-02 19:34:00,23.5,18.0,29.89,NNE,22,2.3,2.3,79,0.00,CLR,,0.00,WeatherDisplay:10.37,2013-03-03 00:34:00,
2013-03-02 19:39:00,23.5,18.0,29.89,NNE,22,4.6,4.6,79,0.00,CLR,,0.00,WeatherDisplay:10.37,2013-03-03 00:39:00,
2013-03-02 19:44:00,23.5,18.0,29.89,NNE,22,1.1,1.5,79,0.00,CLR,,0.00,WeatherDisplay:10.37,2013-03-03 00:44:00,
2013-03-02 19:49:00,23.5,18.3,29.89,NNE,22,0.0,0.0,80,0.00,CLR,,0.00,WeatherDisplay:10.37,2013-03-03 00:49:00,
2013-03-02 19:54:00,23.4,18.1,29.90,NNE,22,0.0,0.0,80,0.00,CLR,,0.00,WeatherDisplay:10.37,2013-03-03 00:54:00,
2013-03-02 19:59:00,23.4,18.1,29.90,NNE,22,2.7,2.8,80,0.00,CLR,,0.00,WeatherDisplay:10.37,2013-03-03 00:59:00,
2013-03-02 20:04:00,23.2,17.9,29.90,NNE,22,0.0,0.0,80,0.00,CLR,,0.00,WeatherDisplay:10.37,2013-03-03 01:04:00,
2013-03-02 20:09:00,23.2,17.9,29.90,NNE,22,0.0,0.3,80,0.00,CLR,,0.00,WeatherDisplay:10.37,2013-03-03 01:09:00,
2013-03-02 20:14:00,23.0,17.7,29.90,NNE,22,4.6,4.6,80,0.00,CLR,,0.00,WeatherDisplay:10.37,2013-03-03 01:14:00,
2013-03-02 20:19:00,22.8,17.9,29.90,NNE,22,2.3,2.3,81,0.00,CLR,,0.00,WeatherDisplay:10.37,2013-03-03 01:19:00,
2013-03-02 20:24:00,22.8,17.9,29.90,NNE,22,2.3,2.5,81,0.00,CLR,,0.00,WeatherDisplay:10.37,2013-03-03 01:24:00,
2013-03-02 20:29:00,22.8,17.9,29.90,NNE,22,5.8,5.8,81,0.00,CLR,,0.00,WeatherDisplay:10.37,2013-03-03 01:29:00,
2013-03-02 20:34:00,22.8,17.9,29.90,NNE,22,4.6,4.6,81,0.00,CLR,,0.00,WeatherDisplay:10.37,2013-03-03 01:34:00,
2013-03-02 20:39:00,22.8,17.9,29.90,NNE,22,3.5,3.5,81,0.00,CLR,,0.00,WeatherDisplay:10.37,2013-03-03 01:39:00,
2013-03-02 20:44:00,22.8,17.9,29.90,NNE,22,0.0,0.0,81,0.00,CLR,,0.00,WeatherDisplay:10.37,2013-03-03 01:44:00,
2013-03-02 20:49:00,22.6,17.7,29.90,NNE,22,0.0,0.0,81,0.00,CLR,,0.00,WeatherDisplay:10.37,2013-03-03 01:49:00,
2013-03-02 20:54:00,22.6,17.7,29.90,NNE,22,0.0,0.0,81,0.00,CLR,,0.00,WeatherDisplay:10.37,2013-03-03 01:54:00,
2013-03-02 20:59:00,22.6,17.7,29.90,NNE,22,1.4,1.4,81,0.00,CLR,,0.00,WeatherDisplay:10.37,2013-03-03 01:59:00,
2013-03-02 21:04:00,22.6,17.4,29.90,NNE,22,3.5,3.5,80,0.00,CLR,,0.00,WeatherDisplay:10.37,2013-03-03 02:04:00,
2013-03-02 21:09:00,22.6,17.4,29.91,NNE,22,0.0,0.0,80,0.00,CLR,,0.00,WeatherDisplay:10.37,2013-03-03 02:09:00,
2013-03-02 21:14:00,22.6,17.4,29.91,NNE,22,2.3,2.3,80,0.00,CLR,,0.00,WeatherDisplay:10.37,2013-03-03 02:14:00,
2013-03-02 21:19:00,22.6,17.4,29.91,NNE,22,3.5,3.5,80,0.00,CLR,,0.00,WeatherDisplay:10.37,2013-03-03 02:19:00,
2013-03-02 21:24:00,22.6,17.4,29.91,NNE,22,0.0,0.0,80,0.00,CLR,,0.00,WeatherDisplay:10.37,2013-03-03 02:24:00,
2013-03-02 21:29:00,22.5,17.5,29.91,NNE,22,0.0,0.0,81,0.00,CLR,,0.00,WeatherDisplay:10.37,2013-03-03 02:29:00,
2013-03-02 21:34:00,22.5,17.5,29.91,NNE,22,0.0,0.0,81,0.00,CLR,,0.00,WeatherDisplay:10.37,2013-03-03 02:34:00,
2013-03-02 21:39:00,22.6,17.7,29.91,NNE,22,0.0,0.0,81,0.00,CLR,,0.00,WeatherDisplay:10.37,2013-03-03 02:39:00,
2013-03-02 21:44:00,22.6,17.7,29.91,NNE,22,5.8,5.8,81,0.00,CLR,,0.00,WeatherDisplay:10.37,2013-03-03 02:44:00,
2013-03-02 21:49:00,22.6,17.7,29.91,NNE,22,1.1,1.1,81,0.00,CLR,,0.00,WeatherDisplay:10.37,2013-03-03 02:49:00,
2013-03-02 21:54:00,22.5,17.5,29.91,NNE,22,2.3,2.3,81,0.00,CLR,,0.00,WeatherDisplay:10.37,2013-03-03 02:54:00,
2013-03-02 21:59:00,22.3,17.3,29.91,NNE,22,0.0,0.0,81,0.00,CLR,,0.00,WeatherDisplay:10.37,2013-03-03 02:59:00,
2013-03-02 22:04:00,22.3,17.3,29.91,NNE,22,0.0,0.0,81,0.00,CLR,,0.00,WeatherDisplay:10.37,2013-03-03 03:04:00,
2013-03-02 22:09:00,22.1,17.2,29.91,NNE,22,1.7,1.8,81,0.00,CLR,,0.00,WeatherDisplay:10.37,2013-03-03 03:09:00,
2013-03-02 22:14:00,22.1,17.2,29.91,NNE,22,0.0,0.0,81,0.00,CLR,,0.00,WeatherDisplay:10.37,2013-03-03 03:14:00,
2013-03-02 22:19:00,22.1,17.2,29.91,NNE,22,0.0,0.0,81,0.00,CLR,,0.00,WeatherDisplay:10.37,2013-03-03 03:19:00,
2013-03-02 22:24:00,22.1,17.4,29.91,NNE,22,0.0,0.0,82,0.00,CLR,,0.00,WeatherDisplay:10.37,2013-03-03 03:24:00,
2013-03-02 22:29:00,22.1,17.2,29.91,NNE,22,2.3,2.8,81,0.00,CLR,,0.00,WeatherDisplay:10.37,2013-03-03 03:29:00,
2013-03-02 22:34:00,21.9,17.0,29.91,NNE,22,0.0,0.2,81,0.00,CLR,,0.00,WeatherDisplay:10.37,2013-03-03 03:34:00,
2013-03-02 22:39:00,21.9,17.0,29.90,NNE,22,0.0,0.0,81,0.00,CLR,,0.00,WeatherDisplay:10.37,2013-03-03 03:39:00,
2013-03-02 22:44:00,21.9,17.0,29.90,NNE,22,2.3,2.3,81,0.00,CLR,,0.00,WeatherDisplay:10.37,2013-03-03 03:44:00,
2013-03-02 22:49:00,21.9,17.0,29.90,NNE,22,3.6,3.8,81,0.00,CLR,,0.00,WeatherDisplay:10.37,2013-03-03 03:49:00,
2013-03-02 22:54:00,21.9,17.0,29.90,NNE,22,0.0,0.0,81,0.00,CLR,,0.00,WeatherDisplay:10.37,2013-03-03 03:54:00,
2013-03-02 22:59:00,21.9,17.0,29.90,NNE,22,1.2,1.8,81,0.00,CLR,,0.00,WeatherDisplay:10.37,2013-03-03 03:59:00,
2013-03-02 23:04:00,21.9,17.0,29.90,NNE,22,0.0,0.0,81,0.00,CLR,,0.00,WeatherDisplay:10.37,2013-03-03 04:04:00,
2013-03-02 23:09:00,21.9,17.0,29.90,NNE,22,0.0,0.0,81,0.00,CLR,,0.00,WeatherDisplay:10.37,2013-03-03 04:09:00,
2013-03-02 23:14:00,21.9,17.0,29.90,NNE,22,1.1,1.1,81,0.00,CLR,,0.00,WeatherDisplay:10.37,2013-03-03 04:14:00,
2013-03-02 23:19:00,21.9,17.0,29.90,NNE,22,0.0,0.0,81,0.00,CLR,,0.00,WeatherDisplay:10.37,2013-03-03 04:19:00,
2013-03-02 23:24:00,21.9,17.0,29.90,NNE,22,0.0,0.0,81,0.00,CLR,,0.00,WeatherDisplay:10.37,2013-03-03 04:24:00,
2013-03-02 23:29:00,21.9,17.3,29.90,NNE,22,0.0,0.0,82,0.00,CLR,,0.00,WeatherDisplay:10.37,2013-03-03 04:29:00,
2013-03-02 23:34:00,21.9,17.3,29.90,NNE,22,2.3,2.7,82,0.00,CLR,,0.00,WeatherDisplay:10.37,2013-03-03 04:34:00,
2013-03-02 23:39:00,21.9,17.3,29.90,NNE,22,0.0,0.0,82,0.00,CLR,,0.00,WeatherDisplay:10.37,2013-03-03 04:39:00,
2013-03-02 23:44:00,21.9,17.3,29.90,NNE,22,0.0,0.0,82,0.00,CLR,,0.00,WeatherDisplay:10.37,2013-03-03 04:44:00,
2013-03-02 23:49:00,21.7,17.1,29.90,NNE,22,0.0,0.0,82,0.00,CLR,,0.00,WeatherDisplay:10.37,2013-03-03 04:49:00,
2013-03-02 23:54:00,21.7,17.1,29.90,NNE,22,0.0,4.3,82,0.00,CLR,,0.00,WeatherDisplay:10.37,2013-03-03 04:54:00,
2013-03-02 23:59:00,21.7,17.1,29.90,NNE,22,0.0,0.0,82,0.00,CLR,,0.00,WeatherDisplay:10.37,2013-03-03 04:59:00,